Time;durP1;ratioP1;P1;durP2;ratioP2;P2;SDS_P1;SDS_P2;PMS_P1;PMS_P2;Temp;Humidity;BMP_temperature;BMP_pressure;BME280_temperature;BME280_humidity;BME280_pressure;Samples;Min_cycle;Max_cycle;Signal;HPM_P1;HPM_P2
2024/01/03 00:01:22;;;;;;;0.20;0.20;;;;;;;11.16;73.86;98609.50;5097418;28;20025;-81
2024/01/03 00:03:49;;;;;;;0.20;0.20;;;;;;;11.02;74.81;98612.13;5102194;28;20094;-82
2024/01/03 00:06:16;;;;;;;0.30;0.30;;;;;;;11.20;73.38;98629.59;5099816;28;20111;-79
2024/01/03 00:08:42;;;;;;;0.10;0.10;;;;;;;11.33;73.16;98637.69;5094524;28;20028;-79
2024/01/03 00:11:14;;;;;;;0.10;0.10;;;;;;;11.45;72.44;98625.50;5087286;28;20020;-79
2024/01/03 00:16:30;;;;;;;0.10;0.10;;;;;;;11.46;70.84;98649.31;5099031;27;20905;-78
2024/01/03 00:18:58;;;;;;;0.20;0.20;;;;;;;11.64;69.83;98630.59;5094638;28;20024;-79
2024/01/03 00:21:26;;;;;;;0.10;0.10;;;;;;;11.70;68.86;98639.97;5092121;28;20028;-80
2024/01/03 00:24:13;;;;;;;2.63;2.40;;;;;;;11.83;67.69;98683.38;5092969;28;20024;-80
2024/01/03 00:26:40;;;;;;;0.10;0.10;;;;;;;11.64;67.82;98654.47;5091639;28;20030;-80
2024/01/03 00:32:03;;;;;;;2.65;2.42;;;;;;;11.98;66.31;98649.78;5099106;27;1211305;-79
2024/01/03 00:37:26;;;;;;;1.23;1.13;;;;;;;12.12;66.25;98672.81;5113754;27;20400;-78
2024/01/03 00:39:55;;;;;;;0.10;0.10;;;;;;;12.04;65.95;98660.03;5094238;28;20444;-79
2024/01/03 00:42:21;;;;;;;0.10;0.10;;;;;;;12.11;65.69;98690.56;5094617;28;20032;-80
2024/01/03 00:44:48;;;;;;;0.55;0.55;;;;;;;11.95;65.71;98714.50;5095276;28;20032;-79
2024/01/03 00:47:14;;;;;;;0.10;0.10;;;;;;;12.14;65.59;98690.38;5094017;28;20040;-81
2024/01/03 00:49:41;;;;;;;0.10;0.10;;;;;;;12.20;65.91;98705.09;5094868;28;20046;-78
2024/01/03 00:52:09;;;;;;;0.20;0.20;;;;;;;12.27;66.44;98693.16;5109764;28;20020;-80
2024/01/03 00:54:36;;;;;;;0.10;0.10;;;;;;;12.09;65.81;98716.34;5102641;28;20070;-81
2024/01/03 00:57:04;;;;;;;0.10;0.10;;;;;;;12.14;66.08;98710.75;5097311;28;20059;-81
2024/01/03 00:59:34;;;;;;;0.10;0.10;;;;;;;12.12;66.72;98744.50;5097377;28;20081;-81
2024/01/03 01:02:03;;;;;;;0.10;0.10;;;;;;;12.26;66.12;98711.81;5108233;28;20042;-79
2024/01/03 01:04:30;;;;;;;0.10;0.10;;;;;;;12.22;65.71;98742.16;5103227;28;20063;-81
2024/01/03 01:06:57;;;;;;;0.10;0.10;;;;;;;12.35;65.32;98700.63;5096945;28;20027;-80
2024/01/03 01:09:23;;;;;;;0.10;0.10;;;;;;;12.41;65.69;98731.25;5097395;28;20126;-81
2024/01/03 01:11:50;;;;;;;0.10;0.10;;;;;;;12.38;65.31;98732.28;5094548;28;20454;-79
2024/01/03 01:14:16;;;;;;;2.15;2.05;;;;;;;12.41;65.06;98720.63;5093922;28;20032;-81
2024/01/03 01:16:42;;;;;;;0.22;0.22;;;;;;;12.35;64.64;98723.66;5095783;28;20033;-81
2024/01/03 01:19:08;;;;;;;0.17;0.17;;;;;;;12.40;65.16;98740.16;5095965;28;20040;-80
2024/01/03 01:21:34;;;;;;;0.28;0.28;;;;;;;12.29;65.35;98749.66;5096594;28;20021;-81
2024/01/03 01:24:01;;;;;;;1.05;1.05;;;;;;;12.45;64.69;98738.09;5096411;28;20021;-80
2024/01/03 01:26:27;;;;;;;0.98;0.98;;;;;;;12.34;64.31;98749.38;5096755;28;20028;-79
2024/01/03 01:28:53;;;;;;;0.20;0.20;;;;;;;12.49;63.76;98771.47;5096928;28;20572;-79
2024/01/03 01:31:19;;;;;;;0.40;0.40;;;;;;;12.39;64.07;98768.53;5095521;28;20414;-79
2024/01/03 01:33:45;;;;;;;0.13;0.13;;;;;;;12.50;63.34;98794.44;5097716;28;20081;-80
2024/01/03 01:36:11;;;;;;;0.10;0.10;;;;;;;12.49;63.63;98760.84;5096273;28;20032;-80
2024/01/03 01:38:37;;;;;;;0.15;0.15;;;;;;;12.46;63.31;98803.53;5095446;28;20024;-79
2024/01/03 01:41:04;;;;;;;0.10;0.10;;;;;;;12.47;63.03;98781.34;5095854;28;20545;-81
2024/01/03 01:43:30;;;;;;;0.10;0.10;;;;;;;12.57;63.11;98761.25;5095659;28;20028;-82
2024/01/03 01:45:56;;;;;;;0.65;0.65;;;;;;;12.58;62.75;98805.44;5096618;28;20080;-81
2024/01/03 01:48:23;;;;;;;0.10;0.10;;;;;;;12.60;62.61;98794.75;5083556;28;20356;-81
2024/01/03 01:50:50;;;;;;;0.10;0.10;;;;;;;12.55;62.79;98784.38;5080032;28;20028;-79
2024/01/03 01:53:16;;;;;;;1.13;1.13;;;;;;;12.55;62.10;98792.34;5080980;28;20032;-79
2024/01/03 01:55:43;;;;;;;0.20;0.20;;;;;;;12.69;62.28;98793.31;5082982;28;20028;-80
2024/01/03 01:58:10;;;;;;;0.10;0.10;;;;;;;12.50;62.75;98842.25;5083043;28;20028;-78
2024/01/03 02:00:38;;;;;;;0.10;0.10;;;;;;;12.54;62.45;98822.53;5080727;28;20024;-80
2024/01/03 02:03:05;;;;;;;0.20;0.20;;;;;;;12.56;62.57;98814.44;5082092;28;20059;-78
2024/01/03 02:05:32;;;;;;;0.98;0.98;;;;;;;12.60;62.22;98814.19;5086903;28;20044;-79
2024/01/03 02:07:59;;;;;;;0.20;0.20;;;;;;;12.51;62.32;98798.81;5087765;28;20095;-80
2024/01/03 02:10:25;;;;;;;0.10;0.10;;;;;;;12.49;62.79;98808.66;5089475;28;20492;-80
2024/01/03 02:12:51;;;;;;;0.40;0.40;;;;;;;12.56;61.90;98828.59;5089988;28;20052;-80
2024/01/03 02:15:17;;;;;;;0.10;0.10;;;;;;;12.55;62.19;98826.06;5090955;28;20024;-79
2024/01/03 02:17:45;;;;;;;0.22;0.22;;;;;;;12.53;62.88;98809.34;5091019;28;20031;-79
2024/01/03 02:20:13;;;;;;;0.60;0.60;;;;;;;12.46;62.81;98819.47;5098351;28;20032;-80
2024/01/03 02:22:39;;;;;;;0.10;0.10;;;;;;;12.69;62.81;98817.25;5091786;28;20028;-80
2024/01/03 02:25:10;;;;;;;0.85;0.85;;;;;;;12.49;63.01;98808.66;5088120;28;20028;-81
2024/01/03 02:27:37;;;;;;;0.10;0.10;;;;;;;12.64;63.19;98814.00;5089468;28;20084;-79
2024/01/03 02:30:04;;;;;;;0.10;0.10;;;;;;;12.40;63.01;98836.63;5087181;28;20035;-81
2024/01/03 02:32:31;;;;;;;0.65;0.60;;;;;;;12.58;63.31;98824.03;5087277;28;20039;-81
2024/01/03 02:34:57;;;;;;;0.17;0.17;;;;;;;12.45;63.07;98810.66;5087973;28;20020;-80
2024/01/03 02:37:24;;;;;;;0.20;0.20;;;;;;;12.43;63.50;98827.63;5088317;28;20033;-82
2024/01/03 02:39:51;;;;;;;0.20;0.20;;;;;;;12.53;63.41;98831.44;5087993;28;20039;-80
2024/01/03 02:42:17;;;;;;;7.22;2.38;;;;;;;12.45;62.55;98823.94;5088327;28;20361;-82
2024/01/03 02:44:43;;;;;;;0.10;0.10;;;;;;;12.56;62.63;98839.22;5089509;28;20047;-82
2024/01/03 02:47:09;;;;;;;6.50;1.13;;;;;;;12.66;62.60;98836.00;5089700;28;20449;-81
2024/01/03 02:49:36;;;;;;;0.10;0.10;;;;;;;12.76;62.28;98846.00;5089467;28;20025;-82
2024/01/03 02:52:02;;;;;;;0.40;0.40;;;;;;;12.58;63.15;98839.13;5088686;28;20021;-81
2024/01/03 02:54:28;;;;;;;0.10;0.10;;;;;;;12.65;62.86;98834.28;5090227;28;20051;-80
2024/01/03 02:56:54;;;;;;;0.10;0.10;;;;;;;12.66;63.28;98846.63;5091446;28;20043;-79
2024/01/03 02:59:20;;;;;;;0.10;0.10;;;;;;;12.70;62.62;98856.16;5088676;28;20032;-80
2024/01/03 03:01:47;;;;;;;0.10;0.10;;;;;;;12.60;63.37;98854.03;5089178;28;20076;-81
2024/01/03 03:04:13;;;;;;;2.95;1.85;;;;;;;12.68;62.92;98869.50;5090822;28;20024;-80
2024/01/03 03:06:39;;;;;;;0.10;0.10;;;;;;;12.66;63.28;98847.50;5089663;28;20024;-81
2024/01/03 03:09:05;;;;;;;1.05;0.98;;;;;;;12.83;62.58;98859.75;5087827;28;20039;-81
2024/01/03 03:11:31;;;;;;;0.85;0.85;;;;;;;12.84;62.56;98855.31;5087304;28;20055;-78
2024/01/03 03:13:57;;;;;;;0.40;0.40;;;;;;;12.83;62.68;98858.91;5087750;28;20024;-81
2024/01/03 03:16:24;;;;;;;0.65;0.65;;;;;;;12.89;63.28;98854.06;5092317;28;20032;-79
2024/01/03 03:18:50;;;;;;;0.10;0.10;;;;;;;12.73;63.94;98867.41;5095596;28;20574;-79
2024/01/03 03:21:16;;;;;;;0.10;0.10;;;;;;;12.65;64.15;98845.78;5089845;28;20025;-81
2024/01/03 03:23:42;;;;;;;0.10;0.10;;;;;;;12.70;64.32;98888.03;5091378;28;20033;-81
2024/01/03 03:26:10;;;;;;;0.10;0.10;;;;;;;12.87;63.50;98860.41;5090060;28;20032;-79
2024/01/03 03:28:36;;;;;;;1.35;1.35;;;;;;;12.81;64.05;98855.47;5088318;28;20101;-77
2024/01/03 03:31:03;;;;;;;0.10;0.10;;;;;;;12.92;64.07;98868.94;5088908;28;20082;-79
2024/01/03 03:33:32;;;;;;;0.95;0.95;;;;;;;12.89;64.02;98861.19;5090558;28;20407;-80
2024/01/03 03:35:58;;;;;;;0.30;0.30;;;;;;;12.97;64.37;98850.06;5089999;28;20037;-80
2024/01/03 03:38:24;;;;;;;0.22;0.22;;;;;;;12.98;64.28;98868.56;5090786;28;20047;-81
2024/01/03 03:40:50;;;;;;;0.68;0.68;;;;;;;12.90;63.99;98866.41;5089526;28;20033;-81
2024/01/03 03:43:17;;;;;;;0.10;0.10;;;;;;;13.06;63.66;98873.41;5088753;28;20090;-81
2024/01/03 03:45:43;;;;;;;0.10;0.10;;;;;;;12.98;64.39;98857.09;5089044;28;20029;-79
2024/01/03 03:48:09;;;;;;;6.35;0.70;;;;;;;13.02;64.03;98863.94;5088281;28;20033;-78
2024/01/03 03:50:35;;;;;;;1.10;1.10;;;;;;;12.96;63.88;98857.22;5088237;28;20032;-79
2024/01/03 03:53:01;;;;;;;2.17;1.98;;;;;;;12.83;64.84;98873.03;5088296;28;20024;-79
2024/01/03 03:55:28;;;;;;;0.32;0.32;;;;;;;12.76;65.02;98871.69;5089311;28;20035;-80
2024/01/03 03:57:54;;;;;;;0.15;0.15;;;;;;;12.85;64.99;98873.81;5089447;28;20039;-80
2024/01/03 04:00:20;;;;;;;1.27;0.45;;;;;;;12.90;64.80;98881.50;5089269;28;20024;-81
2024/01/03 04:02:46;;;;;;;3.10;1.35;;;;;;;12.78;64.82;98888.41;5086949;28;20028;-80
2024/01/03 04:05:12;;;;;;;2.25;2.05;;;;;;;12.97;64.81;98879.31;5089896;28;20035;-81
2024/01/03 04:07:39;;;;;;;0.10;0.10;;;;;;;12.78;65.38;98883.09;5089899;28;20016;-81
2024/01/03 04:10:06;;;;;;;0.10;0.10;;;;;;;12.87;65.38;98863.94;5087137;28;20028;-81
2024/01/03 04:12:36;;;;;;;0.10;0.10;;;;;;;12.84;65.17;98864.13;5087714;28;20035;-79
2024/01/03 04:15:03;;;;;;;0.10;0.10;;;;;;;12.90;65.23;98874.38;5086866;28;20088;-80
2024/01/03 04:17:29;;;;;;;0.10;0.10;;;;;;;12.82;65.79;98866.00;5086689;28;20037;-79
2024/01/03 04:19:55;;;;;;;0.52;0.52;;;;;;;12.78;65.67;98869.81;5085234;28;20035;-79
2024/01/03 04:22:22;;;;;;;20.58;2.35;;;;;;;12.73;65.94;98877.19;5085439;28;20036;-78
2024/01/03 04:24:48;;;;;;;0.10;0.10;;;;;;;12.67;65.71;98869.59;5086838;28;20062;-81
2024/01/03 04:27:14;;;;;;;0.10;0.10;;;;;;;12.60;66.06;98874.44;5084946;28;20510;-80
2024/01/03 04:29:40;;;;;;;0.20;0.20;;;;;;;12.69;66.14;98875.69;5083308;28;20036;-79
2024/01/03 04:32:07;;;;;;;0.10;0.10;;;;;;;12.65;65.97;98871.47;5085529;28;20028;-80
2024/01/03 04:34:33;;;;;;;0.15;0.15;;;;;;;12.57;66.00;98886.09;5086810;28;20047;-81
2024/01/03 04:36:59;;;;;;;0.10;0.10;;;;;;;12.57;66.35;98891.41;5087143;28;20036;-81
2024/01/03 04:39:25;;;;;;;0.80;0.80;;;;;;;12.55;66.21;98887.16;5087068;28;20040;-79
2024/01/03 04:41:52;;;;;;;0.10;0.10;;;;;;;12.66;66.10;98883.81;5085858;28;20039;-80
2024/01/03 04:44:18;;;;;;;0.30;0.30;;;;;;;12.78;65.58;98883.97;5086786;28;20561;-80
2024/01/03 04:46:44;;;;;;;6.05;3.60;;;;;;;12.72;66.13;98896.75;5084399;28;20028;-81
2024/01/03 04:49:10;;;;;;;1.25;0.65;;;;;;;12.78;65.84;98889.28;5084073;28;20021;-80
2024/01/03 04:51:36;;;;;;;0.10;0.10;;;;;;;12.97;65.21;98887.28;5084481;28;20037;-81
2024/01/03 04:54:03;;;;;;;0.45;0.45;;;;;;;13.00;65.41;98879.13;5086708;28;20024;-81
2024/01/03 04:56:29;;;;;;;0.10;0.10;;;;;;;12.90;65.14;98887.66;5089300;28;20096;-80
2024/01/03 04:58:55;;;;;;;0.73;0.73;;;;;;;12.86;65.52;98878.19;5089997;28;20049;-81
2024/01/03 05:01:22;;;;;;;0.10;0.10;;;;;;;12.84;65.50;98887.19;5089601;28;20025;-80
2024/01/03 05:03:48;;;;;;;0.10;0.10;;;;;;;12.99;65.18;98893.38;5088366;28;20024;-79
2024/01/03 05:06:14;;;;;;;0.88;0.45;;;;;;;12.98;65.41;98887.19;5086685;28;20031;-79
2024/01/03 05:08:40;;;;;;;1.88;1.77;;;;;;;12.93;65.40;98890.16;5088091;28;20032;-80
2024/01/03 05:11:06;;;;;;;0.10;0.10;;;;;;;12.84;65.16;98885.38;5087729;28;20037;-80
2024/01/03 05:13:32;;;;;;;3.72;0.75;;;;;;;12.85;65.05;98892.41;5087988;28;20031;-79
2024/01/03 05:15:58;;;;;;;0.75;0.75;;;;;;;12.91;64.88;98893.81;5087635;28;20037;-80
2024/01/03 05:18:26;;;;;;;1.23;1.23;;;;;;;12.79;65.46;98888.31;5087576;28;20094;-80
2024/01/03 05:20:53;;;;;;;0.10;0.10;;;;;;;12.66;65.67;98883.81;5088417;28;20054;-80
2024/01/03 05:23:19;;;;;;;0.10;0.10;;;;;;;12.53;66.42;98891.69;5091915;28;20032;-80
2024/01/03 05:25:47;;;;;;;0.45;0.45;;;;;;;12.62;66.50;98913.25;5092347;28;20020;-80
2024/01/03 05:28:13;;;;;;;0.43;0.43;;;;;;;12.59;65.85;98894.81;5090928;28;20020;-80
2024/01/03 05:30:40;;;;;;;5.25;1.60;;;;;;;12.40;66.23;98904.81;5091905;28;20399;-81
2024/01/03 05:33:07;;;;;;;0.20;0.20;;;;;;;12.59;65.71;98889.50;5093172;28;20155;-80
2024/01/03 05:35:33;;;;;;;0.15;0.15;;;;;;;12.59;65.83;98888.66;5091751;28;20044;-79
2024/01/03 05:37:59;;;;;;;0.20;0.20;;;;;;;12.53;65.57;98900.50;5093090;28;20025;-77
2024/01/03 05:40:25;;;;;;;0.50;0.50;;;;;;;12.55;65.41;98903.94;5086725;28;20037;-77
2024/01/03 05:42:51;;;;;;;5.47;1.75;;;;;;;12.52;65.93;98922.69;5083706;28;20033;-78
2024/01/03 05:45:17;;;;;;;0.10;0.10;;;;;;;12.55;65.86;98903.94;5091678;28;20032;-79
2024/01/03 05:47:43;;;;;;;0.40;0.40;;;;;;;12.48;66.03;98907.88;5092332;28;20032;-80
2024/01/03 05:50:10;;;;;;;0.20;0.20;;;;;;;12.55;65.84;98913.72;5090433;28;20029;-80
2024/01/03 05:52:36;;;;;;;0.10;0.10;;;;;;;12.52;66.18;98904.09;5091192;28;20072;-81
2024/01/03 05:55:02;;;;;;;0.45;0.45;;;;;;;12.51;65.90;98904.19;5090490;28;20032;-80
2024/01/03 05:57:29;;;;;;;2.38;2.20;;;;;;;12.50;66.66;98910.44;5092229;28;20078;-81
2024/01/03 05:59:55;;;;;;;0.10;0.10;;;;;;;12.27;66.73;98904.69;5089107;28;20032;-79
2024/01/03 06:02:21;;;;;;;0.10;0.10;;;;;;;12.36;67.45;98908.59;5089851;28;20028;-79
2024/01/03 06:04:48;;;;;;;0.10;0.10;;;;;;;12.42;66.96;98909.13;5091120;28;20077;-79
2024/01/03 06:07:14;;;;;;;34.42;1.17;;;;;;;12.43;67.33;98915.28;5089309;28;20044;-79
2024/01/03 06:09:40;;;;;;;0.10;0.10;;;;;;;12.36;67.54;98913.91;5087312;28;20036;-80
2024/01/03 06:12:07;;;;;;;0.17;0.17;;;;;;;12.29;67.73;98916.09;5089503;28;20036;-81
2024/01/03 06:14:33;;;;;;;0.10;0.10;;;;;;;12.24;67.94;98919.00;5088936;28;20036;-80
2024/01/03 06:16:59;;;;;;;33.22;1.55;;;;;;;12.19;68.58;98913.09;5087946;28;20111;-81
2024/01/03 06:19:25;;;;;;;0.20;0.20;;;;;;;12.13;69.43;98913.47;5087589;28;20040;-80
2024/01/03 06:21:51;;;;;;;0.32;0.32;;;;;;;12.22;68.63;98918.22;5085880;28;20029;-80
2024/01/03 06:24:17;;;;;;;0.10;0.10;;;;;;;12.09;69.42;98917.25;5088222;28;20032;-81
2024/01/03 06:26:43;;;;;;;0.10;0.10;;;;;;;12.07;69.30;98924.44;5091105;28;20028;-80
2024/01/03 06:29:10;;;;;;;0.10;0.10;;;;;;;12.02;70.08;98918.53;5088919;28;20088;-79
2024/01/03 06:31:36;;;;;;;0.22;0.22;;;;;;;11.97;69.95;98921.44;5088171;28;20047;-80
2024/01/03 06:34:08;;;;;;;0.10;0.10;;;;;;;11.88;70.24;98920.13;5088130;28;20020;-82
2024/01/03 06:36:34;;;;;;;0.50;0.50;;;;;;;12.00;70.10;98928.38;5080241;28;20037;-81
2024/01/03 06:39:00;;;;;;;0.10;0.10;;;;;;;11.88;70.77;98933.41;5087288;28;20028;-81
2024/01/03 06:41:27;;;;;;;0.20;0.20;;;;;;;11.88;70.74;98930.75;5086236;28;20403;-80
2024/01/03 06:43:53;;;;;;;0.88;0.88;;;;;;;11.75;71.71;98940.31;5085242;28;20060;-80
2024/01/03 06:46:19;;;;;;;0.10;0.10;;;;;;;11.83;71.38;98938.09;5085688;28;20042;-80
2024/01/03 06:48:45;;;;;;;0.10;0.10;;;;;;;11.60;72.50;98932.28;5086670;28;20028;-81
2024/01/03 06:51:11;;;;;;;0.15;0.15;;;;;;;11.70;71.70;98934.41;5084697;28;20044;-80
2024/01/03 06:53:38;;;;;;;0.20;0.20;;;;;;;11.60;71.33;98936.72;5091455;28;20059;-78
2024/01/03 06:56:04;;;;;;;0.10;0.10;;;;;;;11.45;71.74;98944.59;5093499;28;20093;-78
2024/01/03 06:58:31;;;;;;;0.10;0.10;;;;;;;11.43;71.90;98951.75;5086954;28;20063;-79
2024/01/03 07:00:57;;;;;;;0.13;0.13;;;;;;;11.44;72.56;98953.47;5080984;28;20024;-78
2024/01/03 07:03:24;;;;;;;0.75;0.75;;;;;;;11.33;73.02;98940.78;5082218;28;20024;-79
2024/01/03 07:05:50;;;;;;;0.10;0.10;;;;;;;11.32;73.46;98951.47;5079630;28;20515;-79
2024/01/03 07:08:16;;;;;;;0.10;0.10;;;;;;;11.28;73.22;98952.59;5077963;28;20028;-80
2024/01/03 07:10:42;;;;;;;0.43;0.43;;;;;;;11.29;73.76;98949.84;5078338;28;20116;-79
2024/01/03 07:13:08;;;;;;;3.78;2.78;;;;;;;11.27;73.18;98961.47;5080983;28;20032;-78
2024/01/03 07:15:35;;;;;;;0.20;0.20;;;;;;;11.29;73.57;98949.84;5074072;28;20028;-80
2024/01/03 07:18:01;;;;;;;0.10;0.10;;;;;;;11.22;73.47;98959.06;5084506;28;20024;-81
2024/01/03 07:20:27;;;;;;;0.20;0.20;;;;;;;11.29;73.98;98960.47;5086247;28;20059;-82
2024/01/03 07:22:53;;;;;;;0.32;0.32;;;;;;;11.28;73.59;98966.69;5085386;28;20020;-82
2024/01/03 07:25:19;;;;;;;0.20;0.20;;;;;;;11.17;74.10;98974.34;5083904;28;20063;-81
2024/01/03 07:27:47;;;;;;;0.10;0.10;;;;;;;11.31;73.54;98968.31;5084336;28;20029;-81
2024/01/03 07:30:13;;;;;;;0.10;0.10;;;;;;;11.37;73.34;98964.50;5084017;28;20024;-80
2024/01/03 07:32:39;;;;;;;0.30;0.30;;;;;;;11.46;73.03;98971.94;5082348;28;20032;-80
2024/01/03 07:35:06;;;;;;;0.10;0.10;;;;;;;11.47;73.33;98979.81;5085389;28;20084;-81
2024/01/03 07:37:33;;;;;;;0.20;0.20;;;;;;;11.45;73.33;98980.84;5084393;28;20056;-81
2024/01/03 07:40:00;;;;;;;0.43;0.43;;;;;;;11.50;73.29;98978.78;5082505;28;20044;-82
2024/01/03 07:42:26;;;;;;;0.10;0.10;;;;;;;11.59;72.99;98973.00;5081438;28;20077;-80
2024/01/03 07:44:52;;;;;;;0.10;0.10;;;;;;;11.46;73.39;98987.84;5082145;28;20057;-81
2024/01/03 07:47:18;;;;;;;0.10;0.10;;;;;;;11.60;73.01;98980.03;5085431;28;20146;-81
2024/01/03 07:49:44;;;;;;;0.10;0.10;;;;;;;11.57;73.28;98969.56;5085192;28;20028;-80
2024/01/03 07:52:11;;;;;;;35.13;1.45;;;;;;;11.69;73.33;98985.75;5080627;28;20025;-80
2024/01/03 07:54:37;;;;;;;0.20;0.20;;;;;;;11.69;73.44;98983.97;5085847;28;20055;-82
2024/01/03 07:57:04;;;;;;;0.15;0.15;;;;;;;11.65;72.70;98980.63;5092281;28;20040;-78
2024/01/03 07:59:32;;;;;;;0.47;0.47;;;;;;;11.85;72.43;98984.00;5086546;28;20080;-80
2024/01/03 08:01:58;;;;;;;0.10;0.10;;;;;;;11.71;73.13;99028.97;5082718;28;20032;-81
2024/01/03 08:04:25;;;;;;;0.10;0.10;;;;;;;11.85;72.31;99009.66;5084634;28;20056;-81
2024/01/03 08:06:51;;;;;;;0.10;0.10;;;;;;;11.89;72.06;98990.84;5090908;28;20013;-80
2024/01/03 08:09:18;;;;;;;0.30;0.30;;;;;;;11.89;72.21;99012.06;5088426;28;20566;-81
2024/01/03 08:11:44;;;;;;;0.10;0.10;;;;;;;12.00;71.57;99006.22;5081617;28;20047;-83
2024/01/03 08:14:10;;;;;;;0.10;0.10;;;;;;;11.89;71.95;99021.84;5082382;28;20021;-81
2024/01/03 08:16:36;;;;;;;0.10;0.10;;;;;;;12.08;71.49;99006.63;5080050;28;20028;-81
2024/01/03 08:19:02;;;;;;;0.10;0.10;;;;;;;12.02;71.58;99016.72;5083494;28;20028;-81
2024/01/03 08:21:28;;;;;;;1.63;1.55;;;;;;;12.03;70.86;99010.50;5084492;28;20044;-81
2024/01/03 08:23:54;;;;;;;0.10;0.10;;;;;;;12.13;71.18;99019.66;5085226;28;20085;-81
2024/01/03 08:26:22;;;;;;;0.17;0.17;;;;;;;12.11;71.27;99013.56;5083428;28;20112;-81
2024/01/03 08:28:48;;;;;;;0.45;0.45;;;;;;;12.21;70.69;99014.78;5084513;28;20479;-81
2024/01/03 08:31:16;;;;;;;0.17;0.17;;;;;;;12.21;71.00;99020.09;5079919;28;20029;-81
2024/01/03 08:33:44;;;;;;;0.10;0.10;;;;;;;12.17;70.56;99015.03;5082501;28;20032;-81
2024/01/03 08:36:13;;;;;;;0.10;0.10;;;;;;;12.24;69.95;99029.69;5082700;28;20400;-83
2024/01/03 08:38:40;;;;;;;0.10;0.10;;;;;;;12.24;69.55;99019.06;5082876;28;20046;-80
2024/01/03 08:41:15;;;;;;;0.22;0.22;;;;;;;12.34;69.86;99022.06;5081447;28;20028;-81
2024/01/03 08:43:42;;;;;;;0.10;0.10;;;;;;;12.23;69.40;99028.81;5080191;28;20024;-79
2024/01/03 08:46:08;;;;;;;3.08;1.48;;;;;;;12.33;69.28;99028.31;5081758;28;20407;-82
2024/01/03 08:48:34;;;;;;;0.93;0.93;;;;;;;12.33;69.57;99039.78;5081258;28;20024;-80
2024/01/03 08:51:00;;;;;;;0.10;0.10;;;;;;;12.33;69.35;99023.00;5076520;28;20028;-82
2024/01/03 08:53:27;;;;;;;0.10;0.10;;;;;;;12.28;70.05;99025.91;5082893;28;20414;-82
2024/01/03 08:55:53;;;;;;;0.10;0.10;;;;;;;12.29;69.83;99025.81;5085217;28;20021;-81
2024/01/03 08:58:19;;;;;;;0.10;0.10;;;;;;;12.10;70.61;99041.91;5086863;28;20025;-84
2024/01/03 09:00:45;;;;;;;0.60;0.60;;;;;;;12.27;69.92;99027.72;5087763;28;20028;-81
2024/01/03 09:03:12;;;;;;;0.20;0.20;;;;;;;12.27;69.48;99033.03;5090822;28;20055;-81
2024/01/03 09:05:38;;;;;;;0.10;0.10;;;;;;;12.35;69.58;99050.28;5087588;28;20024;-83
2024/01/03 09:08:05;;;;;;;0.40;0.40;;;;;;;12.22;70.37;99036.88;5086321;28;20044;-81
2024/01/03 09:10:31;;;;;;;0.10;0.10;;;;;;;12.18;70.05;99048.59;5085552;28;20046;-81
2024/01/03 09:12:57;;;;;;;0.10;0.10;;;;;;;12.16;70.36;99046.00;5086878;28;20115;-81
2024/01/03 09:15:23;;;;;;;0.10;0.10;;;;;;;12.22;71.08;99035.03;5085106;28;20033;-82
2024/01/03 09:17:49;;;;;;;0.35;0.35;;;;;;;12.24;70.50;99043.78;5085219;28;20036;-82
2024/01/03 09:20:16;;;;;;;0.82;0.82;;;;;;;12.09;70.42;99040.19;5093278;28;20042;-79
2024/01/03 09:22:42;;;;;;;0.10;0.10;;;;;;;12.12;70.69;99049.78;5090772;28;20020;-81
2024/01/03 09:25:09;;;;;;;0.68;0.68;;;;;;;12.05;71.73;99059.03;5085690;28;20028;-81
2024/01/03 09:27:35;;;;;;;2.60;0.82;;;;;;;12.03;71.54;99055.63;5080295;28;20415;-79
2024/01/03 09:30:02;;;;;;;0.10;0.10;;;;;;;12.07;71.93;99065.97;5081474;28;20021;-80
2024/01/03 09:32:28;;;;;;;2.08;1.75;;;;;;;12.00;72.37;99071.69;5081564;28;20071;-78
2024/01/03 09:34:54;;;;;;;0.20;0.20;;;;;;;11.89;72.72;99081.06;5084382;28;20043;-84
2024/01/03 09:37:20;;;;;;;0.10;0.10;;;;;;;11.91;73.06;99099.56;5083418;28;20120;-78
2024/01/03 09:39:46;;;;;;;25.02;1.75;;;;;;;11.92;72.72;99077.38;5079229;28;20071;-81
2024/01/03 09:42:13;;;;;;;0.77;0.77;;;;;;;12.00;72.82;99082.31;5083535;28;20033;-81
2024/01/03 09:44:39;;;;;;;0.55;0.55;;;;;;;11.95;73.32;99091.34;5082890;28;20072;-81
2024/01/03 09:47:07;;;;;;;0.95;0.95;;;;;;;11.92;73.39;99088.84;5088528;28;20020;-81
2024/01/03 09:49:34;;;;;;;0.13;0.13;;;;;;;12.01;72.91;99084.03;5086939;28;20028;-82
2024/01/03 09:52:01;;;;;;;0.10;0.10;;;;;;;11.97;72.95;99083.34;5092855;28;20104;-84
2024/01/03 09:54:27;;;;;;;0.20;0.20;;;;;;;11.82;73.10;99093.81;5093387;28;20027;-83
2024/01/03 09:56:54;;;;;;;0.10;0.10;;;;;;;11.90;73.51;99088.09;5091183;28;20075;-82
2024/01/03 09:59:21;;;;;;;0.60;0.60;;;;;;;11.78;73.62;99094.06;5087836;28;20033;-82
2024/01/03 10:01:56;;;;;;;0.10;0.10;;;;;;;11.89;73.17;99097.00;5084905;28;20032;-82
2024/01/03 10:04:23;;;;;;;0.93;0.90;;;;;;;11.77;73.17;99095.00;5086560;28;20036;-80
2024/01/03 10:06:52;;;;;;;0.10;0.10;;;;;;;11.99;73.34;99102.69;5089930;28;20093;-81
2024/01/03 10:09:19;;;;;;;0.30;0.30;;;;;;;11.96;72.73;99108.16;5089009;28;20479;-81
2024/01/03 10:11:46;;;;;;;0.22;0.22;;;;;;;11.99;72.05;99105.34;5089547;28;20028;-82
2024/01/03 10:14:18;;;;;;;0.30;0.30;;;;;;;12.05;71.99;99105.03;5094722;28;20034;-80
2024/01/03 10:16:45;;;;;;;0.17;0.17;;;;;;;12.05;71.44;99096.19;5087832;28;20699;-82
2024/01/03 10:19:16;;;;;;;9.75;2.42;;;;;;;11.94;71.21;99099.41;5091391;28;20129;-83
2024/01/03 10:22:02;;;;;;;0.10;0.10;;;;;;;12.04;71.60;99097.16;5089367;28;20412;-86
2024/01/03 10:24:31;;;;;;;0.10;0.10;;;;;;;12.03;70.43;99098.09;5088033;28;20025;-82
2024/01/03 10:27:09;;;;;;;0.10;0.10;;;;;;;12.13;70.95;99102.78;5093597;28;20040;-82
2024/01/03 10:29:36;;;;;;;0.10;0.10;;;;;;;12.16;70.04;99099.09;5095837;28;20107;-81
2024/01/03 10:32:05;;;;;;;0.10;0.10;;;;;;;12.17;70.09;99108.78;5090861;28;20043;-82
2024/01/03 10:34:31;;;;;;;0.22;0.22;;;;;;;12.30;70.17;99096.56;5092297;28;20028;-82
2024/01/03 10:36:58;;;;;;;0.17;0.17;;;;;;;12.23;69.99;99097.84;5092784;28;20061;-83
2024/01/03 10:39:26;;;;;;;0.10;0.10;;;;;;;12.25;69.45;99119.88;5090567;28;20036;-83
2024/01/03 10:41:54;;;;;;;0.10;0.10;;;;;;;12.31;69.01;99110.69;5089752;28;20036;-82
2024/01/03 10:44:21;;;;;;;0.10;0.10;;;;;;;12.30;68.43;99104.53;5091052;28;20016;-82
2024/01/03 10:46:49;;;;;;;0.10;0.10;;;;;;;12.37;68.24;99112.16;5090251;28;20039;-81
2024/01/03 10:49:16;;;;;;;4.68;1.75;;;;;;;12.30;67.95;99106.34;5091351;28;20028;-81
2024/01/03 10:51:44;;;;;;;0.10;0.10;;;;;;;12.34;67.51;99101.72;5087023;28;20108;-82
2024/01/03 10:54:12;;;;;;;0.15;0.15;;;;;;;12.38;67.13;99104.09;5083228;28;20054;-83
2024/01/03 10:56:41;;;;;;;0.10;0.10;;;;;;;12.48;67.69;99100.94;5082082;28;20024;-83
2024/01/03 10:59:08;;;;;;;0.10;0.10;;;;;;;12.44;67.38;99102.91;5083346;28;20075;-84
2024/01/03 11:01:59;;;;;;;0.20;0.20;;;;;;;12.38;68.03;99119.19;5081885;28;20032;-79
2024/01/03 11:04:33;;;;;;;2.70;2.50;;;;;;;12.45;67.49;99107.28;5084473;28;20036;-82
2024/01/03 11:07:29;;;;;;;0.22;0.22;;;;;;;12.58;67.07;99104.78;5084792;28;20104;-83
2024/01/03 11:09:55;;;;;;;0.10;0.10;;;;;;;12.41;67.25;99090.66;5076095;28;20051;-82
2024/01/03 11:12:28;;;;;;;0.10;0.10;;;;;;;12.58;66.47;99099.47;5083786;28;20028;-83
2024/01/03 11:14:54;;;;;;;5.05;1.73;;;;;;;12.62;66.05;99096.56;5081932;28;20086;-83
2024/01/03 11:17:36;;;;;;;0.10;0.10;;;;;;;12.64;65.83;99095.63;5083590;28;20108;-83
2024/01/03 11:20:07;;;;;;;0.10;0.10;;;;;;;12.74;65.67;99094.16;5082405;28;20036;-82
2024/01/03 11:22:56;;;;;;;0.23;0.23;;;;;;;12.66;65.13;99102.56;5083672;28;20032;-80
2024/01/03 11:25:46;;;;;;;0.30;0.30;;;;;;;12.84;64.34;99090.03;5082946;28;20025;-82
2024/01/03 11:28:33;;;;;;;0.10;0.10;;;;;;;13.00;64.61;99113.09;5083531;28;20053;-82
2024/01/03 11:30:59;;;;;;;0.13;0.13;;;;;;;13.00;65.12;99089.16;5083621;28;20056;-82
2024/01/03 11:33:28;;;;;;;0.10;0.10;;;;;;;13.00;65.09;99089.16;5083066;28;20038;-82
2024/01/03 11:35:55;;;;;;;0.55;0.55;;;;;;;12.95;64.93;99098.22;5084385;28;20029;-81
2024/01/03 11:38:41;;;;;;;0.28;0.28;;;;;;;12.99;65.98;99092.75;5093572;28;20028;-83
2024/01/03 11:41:09;;;;;;;0.50;0.50;;;;;;;13.00;65.86;99094.47;5090881;28;20036;-81
2024/01/03 11:43:36;;;;;;;0.20;0.20;;;;;;;12.99;65.94;99093.59;5083855;28;20522;-83